createdAt,value
2019-03-25T00:01:26.626Z,11.43
2019-03-25T00:04:01.726Z,11.83
2019-03-25T00:06:33.765Z,11.23
2019-03-25T00:09:07.816Z,11.10
2019-03-25T00:11:39.954Z,12.87
2019-03-25T00:14:11.897Z,11.93
2019-03-25T00:16:43.926Z,13.17
2019-03-25T00:19:22.818Z,14.30
2019-03-25T00:21:54.844Z,13.77
2019-03-25T00:24:38.655Z,15.97
2019-03-25T00:27:06.354Z,15.83
2019-03-25T00:29:38.382Z,14.57
2019-03-25T00:32:10.434Z,14.37
2019-03-25T00:34:43.819Z,14.33
2019-03-25T00:37:16.846Z,13.40
2019-03-25T00:39:48.815Z,13.80
2019-03-25T00:42:20.834Z,15.20
2019-03-25T00:44:52.986Z,14.00
2019-03-25T00:47:24.992Z,15.50
2019-03-25T00:49:56.955Z,13.93
2019-03-25T00:52:29.154Z,15.50
2019-03-25T00:55:01.127Z,12.87
2019-03-25T00:57:33.254Z,12.97
2019-03-25T01:00:12.323Z,14.30
2019-03-25T01:02:44.392Z,15.50
2019-03-25T01:05:17.009Z,17.33
2019-03-25T01:07:49.158Z,13.53
2019-03-25T01:10:21.106Z,10.60
2019-03-25T01:12:53.210Z,12.80
2019-03-25T01:15:25.267Z,15.47
2019-03-25T01:17:57.410Z,15.23
2019-03-25T01:20:29.485Z,16.10
2019-03-25T01:23:02.477Z,13.77
2019-03-25T01:25:34.419Z,15.40
2019-03-25T01:28:06.620Z,12.83
2019-03-25T01:30:38.676Z,9.97
2019-03-25T01:33:10.734Z,8.73
2019-03-25T01:35:42.699Z,8.23
2019-03-25T01:38:14.646Z,9.20
2019-03-25T01:40:46.603Z,9.80
2019-03-25T01:43:18.615Z,10.23
2019-03-25T01:45:50.678Z,9.17
2019-03-25T01:48:24.458Z,9.50
2019-03-25T01:50:56.383Z,10.20
2019-03-25T01:53:28.445Z,10.73
2019-03-25T01:56:00.498Z,12.23
2019-03-25T01:58:32.456Z,13.57
2019-03-25T02:01:04.391Z,12.50
2019-03-25T02:03:36.371Z,10.93
2019-03-25T02:06:08.438Z,10.57
2019-03-25T02:08:40.424Z,11.37
2019-03-25T02:11:13.479Z,11.10
2019-03-25T02:13:45.412Z,11.97
2019-03-25T02:16:19.256Z,13.27
2019-03-25T02:18:51.295Z,13.73
2019-03-25T02:21:23.277Z,14.07
2019-03-25T02:23:55.288Z,14.03
2019-03-25T02:26:28.647Z,14.13
2019-03-25T02:29:00.687Z,12.87
2019-03-25T02:31:32.763Z,14.10
2019-03-25T02:34:04.716Z,14.90
2019-03-25T02:36:36.671Z,15.53
2019-03-25T02:39:10.238Z,16.00
2019-03-25T02:41:42.206Z,18.20
2019-03-25T02:44:14.241Z,19.07
2019-03-25T02:46:46.255Z,18.30
2019-03-25T02:49:18.297Z,14.50
2019-03-25T02:51:52.015Z,13.43
2019-03-25T02:54:24.017Z,13.27
2019-03-25T02:56:56.274Z,12.47
2019-03-25T02:59:28.299Z,13.03
2019-03-25T03:02:00.288Z,12.37
2019-03-25T03:04:32.228Z,11.33
2019-03-25T03:07:06.948Z,10.93
2019-03-25T03:09:41.537Z,12.73
2019-03-25T03:12:13.488Z,12.43
2019-03-25T03:14:45.678Z,11.13
2019-03-25T03:17:17.630Z,11.77
2019-03-25T03:19:49.613Z,11.73
2019-03-25T03:22:21.621Z,12.53
2019-03-25T03:24:53.612Z,11.20
2019-03-25T03:27:25.541Z,13.07
2019-03-25T03:29:57.610Z,11.47
2019-03-25T03:32:29.698Z,11.30
2019-03-25T03:35:01.713Z,10.87
2019-03-25T03:37:34.768Z,11.30
2019-03-25T03:40:06.769Z,11.73
2019-03-25T03:42:40.018Z,11.20
2019-03-25T03:45:12.395Z,11.03
2019-03-25T03:47:44.320Z,11.43
2019-03-25T03:50:25.126Z,10.83
2019-03-25T03:52:58.369Z,11.80
2019-03-25T03:55:31.566Z,9.50
2019-03-25T03:58:04.195Z,11.63
2019-03-25T04:00:37.305Z,11.70
2019-03-25T04:03:09.267Z,11.67
2019-03-25T04:05:41.252Z,10.63
2019-03-25T04:08:13.261Z,9.97
2019-03-25T04:10:45.301Z,10.47
2019-03-25T04:13:17.385Z,10.50
2019-03-25T04:15:49.397Z,11.90
2019-03-25T04:18:21.347Z,11.73
2019-03-25T04:20:53.312Z,12.30
2019-03-25T04:23:26.404Z,12.67
2019-03-25T04:25:58.383Z,12.33
2019-03-25T04:28:30.321Z,13.40
2019-03-25T04:31:02.301Z,11.03
2019-03-25T04:33:38.811Z,10.77
2019-03-25T04:36:10.824Z,10.60
2019-03-25T04:38:42.792Z,9.67
2019-03-25T04:41:14.931Z,9.17
2019-03-25T04:43:46.907Z,11.07
2019-03-25T04:46:18.833Z,13.07
2019-03-25T04:48:50.911Z,12.03
2019-03-25T04:51:22.911Z,11.87
2019-03-25T04:53:54.904Z,13.10
2019-03-25T04:56:26.873Z,12.57
2019-03-25T04:59:00.403Z,12.70
2019-03-25T05:01:32.401Z,11.60
2019-03-25T05:04:04.317Z,11.23
2019-03-25T05:06:36.395Z,11.37
2019-03-25T05:09:08.464Z,11.23
2019-03-25T05:11:43.519Z,11.63
2019-03-25T05:14:15.537Z,11.50
2019-03-25T05:16:47.571Z,11.77
2019-03-25T05:19:19.657Z,13.87
2019-03-25T05:21:53.880Z,11.73
2019-03-25T05:24:27.663Z,13.53
2019-03-25T05:26:59.619Z,13.67
2019-03-25T05:29:31.637Z,13.77
2019-03-25T05:32:03.602Z,14.53
2019-03-25T05:34:35.569Z,14.97
2019-03-25T05:37:08.689Z,15.23
2019-03-25T05:39:41.042Z,15.67
2019-03-25T05:42:12.978Z,17.00
2019-03-25T05:44:44.962Z,16.20
2019-03-25T05:47:17.003Z,16.37
2019-03-25T05:49:49.061Z,14.63
2019-03-25T05:52:23.010Z,16.13
2019-03-25T05:54:55.031Z,21.47
2019-03-25T05:57:27.159Z,16.30
2019-03-25T05:59:59.188Z,13.80
2019-03-25T06:02:31.151Z,12.87
2019-03-25T06:05:03.130Z,13.70
2019-03-25T06:07:35.142Z,14.07
2019-03-25T06:10:10.272Z,12.23
2019-03-25T06:12:42.591Z,11.20
2019-03-25T06:15:15.089Z,11.97
2019-03-25T06:17:47.113Z,11.87
2019-03-25T06:20:19.152Z,9.87
2019-03-25T06:22:52.010Z,10.67
2019-03-25T06:25:23.959Z,9.77
2019-03-25T06:27:56.010Z,10.03
2019-03-25T06:30:28.041Z,9.40
2019-03-25T06:33:11.713Z,9.77
2019-03-25T06:35:33.761Z,10.20
2019-03-25T06:38:05.800Z,9.43
2019-03-25T06:40:37.978Z,9.83
2019-03-25T06:43:11.884Z,11.37
2019-03-25T06:45:43.953Z,9.00
2019-03-25T06:48:20.920Z,9.40
2019-03-25T06:50:52.965Z,9.73
2019-03-25T06:53:26.064Z,10.43
2019-03-25T06:55:58.058Z,8.33
2019-03-25T06:58:30.333Z,8.90
2019-03-25T07:01:02.316Z,9.97
2019-03-25T07:03:34.433Z,7.73
2019-03-25T07:06:08.205Z,7.77
2019-03-25T07:08:41.635Z,8.03
2019-03-25T07:11:13.590Z,7.77
2019-03-25T07:13:45.595Z,9.03
2019-03-25T07:16:17.630Z,9.00
2019-03-25T07:18:49.579Z,8.50
2019-03-25T07:21:21.652Z,8.90
2019-03-25T07:23:53.596Z,8.10
2019-03-25T07:26:25.638Z,8.20
2019-03-25T07:28:57.678Z,7.17
2019-03-25T07:31:29.817Z,7.77
2019-03-25T07:34:01.834Z,8.47
2019-03-25T07:36:33.824Z,8.17
2019-03-25T07:39:06.910Z,8.43
2019-03-25T07:41:39.130Z,7.27
2019-03-25T07:44:11.202Z,7.97
2019-03-25T07:46:43.206Z,7.03
2019-03-25T07:49:15.215Z,8.00
2019-03-25T07:51:47.282Z,7.70
2019-03-25T07:54:23.847Z,6.03
2019-03-25T07:56:58.661Z,7.63
2019-03-25T07:59:30.675Z,6.33
2019-03-25T08:02:06.857Z,7.07
2019-03-25T08:04:38.992Z,6.50
2019-03-25T08:07:12.764Z,6.00
2019-03-25T08:09:47.501Z,6.53
2019-03-25T08:12:19.660Z,6.93
2019-03-25T08:14:51.567Z,6.00
2019-03-25T08:17:27.130Z,6.73
2019-03-25T08:20:00.762Z,6.30
2019-03-25T08:22:33.876Z,5.97
2019-03-25T08:25:06.454Z,6.20
2019-03-25T08:27:40.801Z,5.83
2019-03-25T08:30:13.156Z,5.30
2019-03-25T08:32:46.506Z,5.20
2019-03-25T08:35:18.599Z,5.10
2019-03-25T08:37:50.633Z,6.07
2019-03-25T08:40:23.014Z,5.87
2019-03-25T08:42:54.968Z,4.43
2019-03-25T08:45:27.132Z,5.87
2019-03-25T08:47:59.253Z,5.70
2019-03-25T08:50:32.951Z,5.40
2019-03-25T08:53:05.016Z,5.03
2019-03-25T08:55:36.997Z,5.20
2019-03-25T08:58:12.208Z,4.93
2019-03-25T09:00:44.678Z,4.70
2019-03-25T09:03:16.578Z,4.97
2019-03-25T09:05:48.520Z,5.00
2019-03-25T09:08:20.470Z,4.20
2019-03-25T09:10:52.558Z,5.33
2019-03-25T09:13:24.639Z,4.47
2019-03-25T09:15:56.682Z,4.47
2019-03-25T09:18:33.085Z,4.63
2019-03-25T09:21:04.792Z,6.37
2019-03-25T09:23:36.762Z,5.07
2019-03-25T09:26:08.843Z,5.07
2019-03-25T09:28:40.830Z,4.50
2019-03-25T09:31:15.366Z,6.10
2019-03-25T09:33:48.714Z,4.20
2019-03-25T09:36:23.311Z,5.43
2019-03-25T09:38:59.617Z,5.17
2019-03-25T09:41:34.385Z,4.57
2019-03-25T09:44:07.956Z,4.90
2019-03-25T09:46:39.934Z,5.17
2019-03-25T09:49:12.015Z,4.40
2019-03-25T09:51:52.944Z,5.13
2019-03-25T09:54:26.867Z,4.53
2019-03-25T09:56:59.345Z,4.23
2019-03-25T09:59:35.948Z,4.60
2019-03-25T10:02:07.913Z,4.30
2019-03-25T10:04:39.956Z,5.30
2019-03-25T10:07:21.105Z,4.87
2019-03-25T10:09:53.175Z,4.30
2019-03-25T10:12:25.144Z,3.97
2019-03-25T10:14:57.169Z,4.13
2019-03-25T10:17:30.714Z,3.77
2019-03-25T10:20:02.759Z,4.47
2019-03-25T10:22:35.003Z,4.60
2019-03-25T10:25:08.354Z,3.70
2019-03-25T10:27:40.522Z,3.57
2019-03-25T10:30:17.154Z,3.90
2019-03-25T10:32:49.187Z,3.63
2019-03-25T10:35:21.383Z,4.57
2019-03-25T10:37:53.321Z,3.87
2019-03-25T10:40:25.322Z,4.30
2019-03-25T10:42:57.325Z,4.30
2019-03-25T10:45:29.335Z,4.00
2019-03-25T10:48:01.420Z,3.30
2019-03-25T10:50:34.984Z,2.73
2019-03-25T10:53:07.034Z,2.97
2019-03-25T10:55:39.113Z,3.73
2019-03-25T10:58:11.211Z,3.67
2019-03-25T11:00:43.356Z,3.60
2019-03-25T11:03:15.395Z,3.63
2019-03-25T11:05:52.926Z,3.30
2019-03-25T11:08:24.998Z,3.23
2019-03-25T11:10:58.218Z,2.60
2019-03-25T11:13:31.402Z,3.47
2019-03-25T11:16:03.521Z,3.60
2019-03-25T11:18:35.564Z,2.80
2019-03-25T11:21:07.982Z,2.90
2019-03-25T11:23:40.116Z,3.50
2019-03-25T11:26:15.267Z,4.20
2019-03-25T11:28:49.575Z,3.17
2019-03-25T11:31:21.540Z,3.30
2019-03-25T11:33:53.795Z,2.80
2019-03-25T11:36:25.758Z,2.60
2019-03-25T11:38:57.728Z,3.67
2019-03-25T11:41:29.694Z,2.20
2019-03-25T11:44:01.726Z,2.10
2019-03-25T11:46:33.769Z,2.73
2019-03-25T11:49:05.759Z,2.50
2019-03-25T11:51:37.784Z,2.30
2019-03-25T11:54:09.802Z,2.50
2019-03-25T11:56:41.720Z,2.43
2019-03-25T11:59:18.671Z,2.40
2019-03-25T12:01:47.298Z,2.37
2019-03-25T12:04:19.284Z,1.97
2019-03-25T12:06:51.258Z,1.60
2019-03-25T12:09:23.226Z,1.47
2019-03-25T12:11:55.254Z,1.80
2019-03-25T12:14:27.233Z,1.77
2019-03-25T12:16:59.210Z,2.00
2019-03-25T12:19:31.972Z,2.00
2019-03-25T12:22:03.951Z,1.80
2019-03-25T12:24:35.943Z,2.23
2019-03-25T12:27:08.038Z,2.77
2019-03-25T12:29:42.108Z,2.17
2019-03-25T12:32:15.034Z,2.33
2019-03-25T12:34:47.048Z,1.93
2019-03-25T12:37:19.150Z,1.97
2019-03-25T12:39:51.219Z,1.97
2019-03-25T12:42:23.198Z,1.80
2019-03-25T12:44:55.153Z,2.00
2019-03-25T12:47:27.132Z,1.80
2019-03-25T12:49:59.238Z,2.00
2019-03-25T12:52:31.366Z,1.73
2019-03-25T12:55:03.402Z,2.20
2019-03-25T12:57:35.333Z,2.13
2019-03-25T13:00:08.102Z,2.13
2019-03-25T13:02:40.025Z,2.10
2019-03-25T13:05:15.462Z,1.97
2019-03-25T13:07:47.401Z,1.63
2019-03-25T13:10:21.946Z,1.80
2019-03-25T13:12:53.994Z,2.57
2019-03-25T13:15:26.116Z,2.73
2019-03-25T13:17:58.562Z,2.00
2019-03-25T13:20:30.669Z,2.37
2019-03-25T13:23:02.738Z,2.10
2019-03-25T13:25:34.721Z,2.30
2019-03-25T13:28:06.715Z,2.20
2019-03-25T13:30:38.811Z,2.40
2019-03-25T13:33:11.079Z,2.67
2019-03-25T13:35:51.214Z,2.70
2019-03-25T13:38:23.471Z,2.00
2019-03-25T13:40:55.432Z,2.37
2019-03-25T13:43:30.378Z,2.67
2019-03-25T13:46:05.767Z,3.20
2019-03-25T13:48:38.006Z,3.00
2019-03-25T13:51:09.964Z,3.63
2019-03-25T13:53:45.178Z,4.00
2019-03-25T13:56:17.198Z,4.60
2019-03-25T13:58:49.295Z,4.47
2019-03-25T14:01:21.231Z,4.17
2019-03-25T14:03:53.411Z,3.37
2019-03-25T14:06:25.355Z,3.93
2019-03-25T14:08:57.340Z,4.33
2019-03-25T14:11:32.702Z,3.97
2019-03-25T14:14:04.655Z,4.73
2019-03-25T14:16:36.893Z,4.60
2019-03-25T14:19:09.016Z,5.83
2019-03-25T14:21:41.244Z,5.80
2019-03-25T14:24:13.209Z,5.17
2019-03-25T14:26:45.295Z,6.17
2019-03-25T14:29:19.279Z,5.43
2019-03-25T14:31:51.277Z,7.60
2019-03-25T14:34:23.293Z,5.00
2019-03-25T14:36:55.317Z,6.33
2019-03-25T14:39:27.263Z,6.33
2019-03-25T14:41:59.222Z,6.93
2019-03-25T14:44:31.206Z,4.90
2019-03-25T14:47:08.761Z,5.63
2019-03-25T14:49:40.713Z,6.10
2019-03-25T14:52:12.654Z,6.00
2019-03-25T14:54:44.725Z,6.90
2019-03-25T14:57:16.799Z,6.97
2019-03-25T14:59:50.177Z,6.77
2019-03-25T15:02:22.429Z,6.90
2019-03-25T15:04:54.387Z,7.43
2019-03-25T15:07:26.422Z,7.67
2019-03-25T15:09:59.653Z,6.17
2019-03-25T15:12:31.798Z,6.10
2019-03-25T15:15:04.201Z,5.83
2019-03-25T15:17:36.305Z,7.80
2019-03-25T15:20:10.197Z,7.73
2019-03-25T15:22:43.515Z,6.13
2019-03-25T15:25:16.432Z,6.10
2019-03-25T15:27:48.593Z,6.43
2019-03-25T15:30:21.122Z,6.57
2019-03-25T15:32:53.196Z,6.67
2019-03-25T15:35:25.207Z,5.80
2019-03-25T15:37:57.467Z,5.67
2019-03-25T15:40:29.731Z,5.97
2019-03-25T15:43:01.864Z,6.10
2019-03-25T15:45:33.906Z,5.90
2019-03-25T15:48:05.883Z,5.23
2019-03-25T15:50:37.851Z,5.57
2019-03-25T15:53:09.817Z,4.10
2019-03-25T15:55:43.356Z,4.50
2019-03-25T15:58:26.026Z,4.20
2019-03-25T16:00:51.839Z,3.73
2019-03-25T16:03:23.927Z,4.03
2019-03-25T16:05:55.949Z,4.63
2019-03-25T16:08:27.902Z,4.87
2019-03-25T16:11:00.321Z,4.17
2019-03-25T16:13:32.546Z,6.33
2019-03-25T16:16:07.107Z,5.20
2019-03-25T16:18:40.811Z,4.80
2019-03-25T16:21:12.951Z,4.03
2019-03-25T16:23:44.927Z,3.60
2019-03-25T16:26:17.027Z,3.40
2019-03-25T16:28:50.145Z,3.50
2019-03-25T16:31:22.150Z,3.83
2019-03-25T16:33:54.341Z,4.43
2019-03-25T16:36:26.729Z,3.80
2019-03-25T16:38:58.817Z,3.57
2019-03-25T16:41:31.104Z,3.73
2019-03-25T16:44:21.918Z,3.50
2019-03-25T16:46:54.019Z,3.87
2019-03-25T16:49:26.017Z,3.47
2019-03-25T16:51:58.065Z,4.07
2019-03-25T16:54:34.211Z,4.30
2019-03-25T16:57:13.360Z,3.70
2019-03-25T16:59:46.320Z,4.20
2019-03-25T17:02:19.238Z,3.90
2019-03-25T17:04:51.212Z,4.03
2019-03-25T17:07:23.294Z,3.90
2019-03-25T17:09:55.306Z,4.37
2019-03-25T17:12:27.397Z,3.77
2019-03-25T17:14:59.622Z,2.80
2019-03-25T17:17:31.908Z,2.90
2019-03-25T17:20:04.449Z,2.40
2019-03-25T17:22:36.484Z,2.50
2019-03-25T17:25:09.166Z,2.27
2019-03-25T17:27:44.303Z,2.17
2019-03-25T17:30:17.737Z,2.80
2019-03-25T17:32:49.851Z,2.37
2019-03-25T17:35:21.882Z,3.57
2019-03-25T17:37:53.869Z,3.40
2019-03-25T17:40:25.956Z,3.20
2019-03-25T17:42:57.899Z,2.70
2019-03-25T17:45:29.931Z,2.70
2019-03-25T17:48:01.975Z,3.07
2019-03-25T17:50:33.994Z,3.10
2019-03-25T17:53:05.982Z,2.90
2019-03-25T17:55:37.918Z,2.33
2019-03-25T17:58:10.032Z,2.97
2019-03-25T18:01:17.323Z,2.80
2019-03-25T18:03:49.548Z,2.37
2019-03-25T18:06:25.099Z,2.13
2019-03-25T18:08:57.102Z,2.53
2019-03-25T18:11:29.277Z,2.60
2019-03-25T18:14:01.417Z,2.10
2019-03-25T18:16:33.454Z,2.20
2019-03-25T18:19:05.794Z,2.30
2019-03-25T18:21:37.885Z,2.20
2019-03-25T18:24:12.266Z,2.43
2019-03-25T18:26:45.440Z,2.20
2019-03-25T18:29:19.010Z,2.10
2019-03-25T18:31:51.026Z,2.60
2019-03-25T18:34:23.006Z,2.30
2019-03-25T18:36:55.006Z,2.77
2019-03-25T18:39:26.964Z,2.50
2019-03-25T18:41:59.025Z,2.77
2019-03-25T18:44:36.086Z,2.57
2019-03-25T18:47:08.202Z,2.77
2019-03-25T18:49:40.359Z,2.20
2019-03-25T18:52:15.007Z,2.90
2019-03-25T18:54:49.773Z,2.60
2019-03-25T18:57:21.836Z,2.90
2019-03-25T18:59:53.815Z,2.50
2019-03-25T19:02:25.754Z,2.30
2019-03-25T19:04:59.236Z,2.83
2019-03-25T19:07:35.648Z,2.40
2019-03-25T19:10:07.784Z,2.70
2019-03-25T19:12:39.711Z,2.97
2019-03-25T19:15:11.703Z,3.33
2019-03-25T19:17:43.671Z,2.70
2019-03-25T19:20:15.696Z,3.30
2019-03-25T19:22:47.665Z,3.30
2019-03-25T19:25:19.947Z,3.43
2019-03-25T19:27:57.426Z,2.87
2019-03-25T19:30:29.533Z,2.77
2019-03-25T19:33:01.530Z,3.33
2019-03-25T19:35:33.620Z,2.93
2019-03-25T19:38:06.609Z,2.93
2019-03-25T19:40:38.639Z,2.93
2019-03-25T19:43:10.643Z,3.07
2019-03-25T19:45:47.561Z,2.80
2019-03-25T19:48:19.967Z,2.40
2019-03-25T19:50:51.951Z,3.53
2019-03-25T19:53:23.939Z,3.60
2019-03-25T19:55:55.938Z,3.53
2019-03-25T19:58:29.745Z,4.17
2019-03-25T20:01:03.267Z,3.90
2019-03-25T20:03:39.311Z,4.27
2019-03-25T20:06:12.101Z,3.80
2019-03-25T20:08:46.501Z,4.17
2019-03-25T20:11:18.536Z,3.87
2019-03-25T20:13:50.749Z,4.13
2019-03-25T20:16:22.741Z,5.40
2019-03-25T20:18:54.707Z,4.07
2019-03-25T20:21:26.683Z,4.20
2019-03-25T20:24:00.339Z,4.73
2019-03-25T20:26:32.347Z,5.20
2019-03-25T20:29:06.492Z,4.40
2019-03-25T20:31:38.183Z,5.23
2019-03-25T20:34:14.354Z,4.50
2019-03-25T20:36:46.643Z,4.70
2019-03-25T20:39:18.733Z,4.70
2019-03-25T20:41:51.755Z,4.23
2019-03-25T20:44:25.436Z,5.03
2019-03-25T20:46:57.501Z,4.90
2019-03-25T20:49:29.569Z,5.03
2019-03-25T20:52:01.756Z,4.93
2019-03-25T20:54:33.849Z,5.43
2019-03-25T20:57:05.960Z,5.20
2019-03-25T20:59:38.174Z,5.00
2019-03-25T21:02:10.721Z,6.60
2019-03-25T21:04:42.881Z,6.00
2019-03-25T21:07:14.955Z,5.73
2019-03-25T21:09:54.219Z,6.47
2019-03-25T21:12:26.405Z,5.63
2019-03-25T21:14:58.600Z,6.63
2019-03-25T21:17:30.733Z,6.47
2019-03-25T21:20:03.043Z,6.77
2019-03-25T21:22:35.288Z,6.83
2019-03-25T21:25:08.534Z,7.20
2019-03-25T21:27:40.758Z,6.07
2019-03-25T21:30:12.999Z,7.27
2019-03-25T21:32:57.714Z,7.53
2019-03-25T21:35:20.052Z,7.80
2019-03-25T21:37:52.227Z,8.27
2019-03-25T21:40:24.304Z,8.40
2019-03-25T21:42:56.294Z,7.67
2019-03-25T21:45:28.274Z,7.83
2019-03-25T21:48:00.436Z,7.43
2019-03-25T21:50:32.560Z,7.10
2019-03-25T21:53:04.550Z,6.77
2019-03-25T21:55:36.645Z,7.90
2019-03-25T21:58:08.611Z,7.53
2019-03-25T22:00:40.742Z,7.00
2019-03-25T22:03:12.824Z,6.50
2019-03-25T22:05:44.847Z,6.83
2019-03-25T22:08:16.791Z,6.13
2019-03-25T22:10:48.899Z,6.03
2019-03-25T22:13:20.884Z,6.87
2019-03-25T22:15:53.895Z,7.90
2019-03-25T22:18:25.915Z,6.87
2019-03-25T22:20:57.961Z,7.57
2019-03-25T22:23:30.170Z,7.43
2019-03-25T22:26:02.129Z,8.30
2019-03-25T22:28:34.114Z,8.00
2019-03-25T22:31:06.094Z,7.60
2019-03-25T22:33:38.143Z,9.23
2019-03-25T22:36:10.112Z,8.03
2019-03-25T22:38:42.211Z,8.23
2019-03-25T22:41:14.199Z,6.30
2019-03-25T22:43:46.224Z,8.70
2019-03-25T22:46:21.748Z,8.50
2019-03-25T22:48:53.740Z,9.17
2019-03-25T22:51:25.667Z,8.13
2019-03-25T22:53:57.661Z,8.00
2019-03-25T22:56:29.685Z,8.57
2019-03-25T22:59:01.747Z,9.07
2019-03-25T23:01:33.744Z,8.17
2019-03-25T23:04:05.792Z,8.43
2019-03-25T23:06:37.730Z,7.87
2019-03-25T23:09:12.737Z,9.03
2019-03-25T23:11:44.722Z,8.40
2019-03-25T23:14:16.764Z,7.13
2019-03-25T23:16:48.865Z,7.67
2019-03-25T23:19:20.925Z,8.13
2019-03-25T23:21:53.005Z,7.40
2019-03-25T23:24:25.089Z,7.67
2019-03-25T23:26:58.839Z,8.50
2019-03-25T23:29:31.443Z,9.57
2019-03-25T23:32:03.771Z,11.20
2019-03-25T23:34:35.842Z,11.50
2019-03-25T23:37:07.840Z,9.83
2019-03-25T23:39:39.920Z,9.43
2019-03-25T23:42:13.601Z,7.80
2019-03-25T23:44:45.668Z,8.93
2019-03-25T23:47:17.682Z,8.83
2019-03-25T23:49:49.630Z,8.60
2019-03-25T23:52:21.720Z,8.43
2019-03-25T23:54:53.774Z,8.83
2019-03-25T23:57:25.762Z,8.37
2019-03-25T23:59:57.882Z,8.20
